createdAt,value
2022-11-21T00:01:38.353Z,15.75
2022-11-21T00:04:08.695Z,13.25
2022-11-21T00:06:37.924Z,14.75
2022-11-21T00:09:07.741Z,15.00
2022-11-21T00:11:37.094Z,14.75
2022-11-21T00:14:06.407Z,12.00
2022-11-21T00:16:35.733Z,12.75
2022-11-21T00:19:05.704Z,13.00
2022-11-21T00:21:35.006Z,12.25
2022-11-21T00:24:04.305Z,11.75
2022-11-21T00:26:33.821Z,12.25
2022-11-21T00:29:03.280Z,12.00
2022-11-21T00:31:32.885Z,13.25
2022-11-21T00:34:02.216Z,12.75
2022-11-21T00:36:31.441Z,11.50
2022-11-21T00:39:00.759Z,13.50
2022-11-21T00:41:30.144Z,13.25
2022-11-21T00:43:59.409Z,12.50
2022-11-21T00:46:28.704Z,15.75
2022-11-21T00:48:57.926Z,13.50
2022-11-21T00:51:27.225Z,12.75
2022-11-21T00:53:56.496Z,15.75
2022-11-21T00:56:25.755Z,16.75
2022-11-21T00:58:55.099Z,14.25
2022-11-21T01:01:24.538Z,14.50
2022-11-21T01:03:53.897Z,13.75
2022-11-21T01:06:23.767Z,15.25
2022-11-21T01:08:52.958Z,16.25
2022-11-21T01:11:23.170Z,13.75
2022-11-21T01:13:55.599Z,14.50
2022-11-21T01:16:26.900Z,15.75
2022-11-21T01:18:56.491Z,13.00
2022-11-21T01:21:32.742Z,13.50
2022-11-21T01:24:02.620Z,13.25
2022-11-21T01:26:34.267Z,13.25
2022-11-21T01:29:04.854Z,13.50
2022-11-21T01:31:34.403Z,11.00
2022-11-21T01:34:03.891Z,9.00
2022-11-21T01:36:34.176Z,13.25
2022-11-21T01:39:06.014Z,12.00
2022-11-21T01:41:43.334Z,12.50
2022-11-21T01:44:13.323Z,15.50
2022-11-21T01:46:42.580Z,16.25
2022-11-21T01:49:14.792Z,18.50
2022-11-21T01:51:44.411Z,14.00
2022-11-21T01:54:13.688Z,15.50
2022-11-21T01:56:46.006Z,13.50
2022-11-21T01:59:20.952Z,13.50
2022-11-21T02:01:54.195Z,13.75
2022-11-21T02:04:27.451Z,12.00
2022-11-21T02:06:57.256Z,12.75
2022-11-21T02:09:27.395Z,13.75
2022-11-21T02:11:58.246Z,11.50
2022-11-21T02:14:28.521Z,11.75
2022-11-21T02:17:00.493Z,13.00
2022-11-21T02:19:34.429Z,11.00
2022-11-21T02:22:14.254Z,13.00
2022-11-21T02:24:48.933Z,10.50
2022-11-21T02:27:19.895Z,10.50
2022-11-21T02:29:49.186Z,10.75
2022-11-21T02:32:25.242Z,9.50
2022-11-21T02:34:55.061Z,9.25
2022-11-21T02:37:24.495Z,11.25
2022-11-21T02:39:53.969Z,9.00
2022-11-21T02:42:35.486Z,9.00
2022-11-21T02:45:07.893Z,8.25
2022-11-21T02:47:40.217Z,7.75
2022-11-21T02:50:09.732Z,10.50
2022-11-21T02:52:39.014Z,9.00
2022-11-21T02:55:09.749Z,7.25
2022-11-21T02:57:40.014Z,9.00
2022-11-21T03:00:10.631Z,8.75
2022-11-21T03:02:39.888Z,8.25
2022-11-21T03:05:10.123Z,9.75
2022-11-21T03:07:40.863Z,7.00
2022-11-21T03:10:10.925Z,6.00
2022-11-21T03:12:44.015Z,7.75
2022-11-21T03:15:14.461Z,7.25
2022-11-21T03:17:44.154Z,6.75
2022-11-21T03:20:15.060Z,8.00
2022-11-21T03:22:45.940Z,7.50
2022-11-21T03:25:16.386Z,6.75
2022-11-21T03:27:45.793Z,6.50
2022-11-21T03:30:15.534Z,7.25
2022-11-21T03:32:44.885Z,7.00
2022-11-21T03:37:59.712Z,7.00
2022-11-21T03:40:28.981Z,6.00
2022-11-21T03:42:58.200Z,5.75
2022-11-21T03:45:27.448Z,6.00
2022-11-21T03:47:57.667Z,4.50
2022-11-21T03:50:26.918Z,4.75
2022-11-21T03:52:56.138Z,4.00
2022-11-21T03:55:25.361Z,5.00
2022-11-21T03:57:54.655Z,3.00
2022-11-21T04:00:24.012Z,5.25
2022-11-21T04:02:53.415Z,4.00
2022-11-21T04:05:22.714Z,4.00
2022-11-21T04:07:52.887Z,4.00
2022-11-21T04:10:23.199Z,5.25
2022-11-21T04:12:52.598Z,3.50
2022-11-21T04:15:21.850Z,4.75
2022-11-21T04:17:51.141Z,2.50
2022-11-21T04:20:20.544Z,4.00
2022-11-21T04:22:49.783Z,4.00
2022-11-21T04:25:19.040Z,4.00
2022-11-21T04:27:48.409Z,3.50
2022-11-21T04:30:17.801Z,3.25
2022-11-21T04:32:48.461Z,3.00
2022-11-21T04:35:17.719Z,2.00
2022-11-21T04:37:47.043Z,3.25
2022-11-21T04:40:16.885Z,3.25
2022-11-21T04:42:47.127Z,3.25
2022-11-21T04:45:17.282Z,2.00
2022-11-21T04:47:47.658Z,3.50
2022-11-21T04:50:17.594Z,3.50
2022-11-21T04:52:54.124Z,2.00
2022-11-21T04:55:24.237Z,3.25
2022-11-21T04:57:53.792Z,2.75
2022-11-21T05:00:24.562Z,2.00
2022-11-21T05:02:54.271Z,3.00
2022-11-21T05:05:23.678Z,3.50
2022-11-21T05:07:53.004Z,3.00
2022-11-21T05:10:23.373Z,2.50
2022-11-21T05:13:20.067Z,4.25
2022-11-21T05:15:52.793Z,4.00
2022-11-21T05:18:22.204Z,3.00
2022-11-21T05:20:51.512Z,4.00
2022-11-21T05:23:20.853Z,3.25
2022-11-21T05:25:51.182Z,3.00
2022-11-21T05:28:20.594Z,3.50
2022-11-21T05:30:50.044Z,2.00
2022-11-21T05:33:20.401Z,2.00
2022-11-21T05:35:49.853Z,3.75
2022-11-21T05:38:19.362Z,3.00
2022-11-21T05:40:48.919Z,4.00
2022-11-21T05:43:36.707Z,2.75
2022-11-21T05:46:06.305Z,3.00
2022-11-21T05:48:38.103Z,1.50
2022-11-21T05:51:07.757Z,2.00
2022-11-21T05:53:37.580Z,2.00
2022-11-21T05:56:08.201Z,5.00
2022-11-21T05:58:37.645Z,3.00
2022-11-21T06:01:07.675Z,4.25
2022-11-21T06:03:39.050Z,3.00
2022-11-21T06:06:09.855Z,2.25
2022-11-21T06:08:44.034Z,2.25
2022-11-21T06:11:14.813Z,2.75
2022-11-21T06:13:44.997Z,5.50
2022-11-21T06:16:16.132Z,5.00
2022-11-21T06:18:47.325Z,6.50
2022-11-21T06:21:25.616Z,5.50
2022-11-21T06:23:56.445Z,5.00
2022-11-21T06:26:28.255Z,4.25
2022-11-21T06:28:59.503Z,5.25
2022-11-21T06:31:29.784Z,5.75
2022-11-21T06:34:00.572Z,5.25
2022-11-21T06:36:30.456Z,4.75
2022-11-21T06:38:59.975Z,5.75
2022-11-21T06:41:32.442Z,4.00
2022-11-21T06:44:06.510Z,3.50
2022-11-21T06:46:37.480Z,4.75
2022-11-21T06:49:07.669Z,6.00
2022-11-21T06:51:37.128Z,3.50
2022-11-21T06:54:06.611Z,4.00
2022-11-21T06:56:35.965Z,3.00
2022-11-21T06:59:05.550Z,3.00
2022-11-21T07:01:35.268Z,3.50
2022-11-21T07:04:05.400Z,4.00
2022-11-21T07:06:35.999Z,1.25
2022-11-21T07:09:31.802Z,3.00
2022-11-21T07:11:54.873Z,4.25
2022-11-21T07:14:24.360Z,2.00
2022-11-21T07:16:53.727Z,1.75
2022-11-21T07:19:24.353Z,1.75
2022-11-21T07:21:53.983Z,1.00
2022-11-21T07:24:23.455Z,1.25
2022-11-21T07:26:53.389Z,1.25
2022-11-21T07:29:23.806Z,1.00
2022-11-21T07:31:53.640Z,2.00
2022-11-21T07:34:23.092Z,2.75
2022-11-21T07:36:53.768Z,2.00
2022-11-21T07:39:23.175Z,1.25
2022-11-21T07:41:52.630Z,1.25
2022-11-21T07:44:22.115Z,1.25
2022-11-21T07:46:51.569Z,0.75
2022-11-21T07:49:20.999Z,1.25
2022-11-21T07:51:50.410Z,1.25
2022-11-21T07:54:19.743Z,1.00
2022-11-21T07:56:49.116Z,0.75
2022-11-21T07:59:20.493Z,0.75
2022-11-21T08:01:50.118Z,0.25
2022-11-21T08:04:20.493Z,1.00
2022-11-21T08:06:50.083Z,1.25
2022-11-21T08:09:19.847Z,0.25
2022-11-21T08:11:49.728Z,2.00
2022-11-21T08:14:19.412Z,3.00
2022-11-21T08:16:49.135Z,3.00
2022-11-21T08:19:18.950Z,0.25
2022-11-21T08:21:48.757Z,1.25
2022-11-21T08:24:18.863Z,3.00
2022-11-21T08:26:48.979Z,4.00
2022-11-21T08:29:19.254Z,1.00
2022-11-21T08:31:48.681Z,1.25
2022-11-21T08:34:18.038Z,1.00
2022-11-21T08:36:47.378Z,2.00
2022-11-21T08:39:16.715Z,1.50
2022-11-21T08:42:04.387Z,2.50
2022-11-21T08:44:35.262Z,2.00
2022-11-21T08:47:05.752Z,1.25
2022-11-21T08:49:36.507Z,2.00
2022-11-21T08:52:06.373Z,1.00
2022-11-21T08:54:35.690Z,1.00
2022-11-21T08:57:05.093Z,2.50
2022-11-21T08:59:34.415Z,1.00
2022-11-21T09:02:04.059Z,2.00
2022-11-21T09:04:33.560Z,5.50
2022-11-21T09:07:03.401Z,17.25
2022-11-21T09:09:33.264Z,12.00
2022-11-21T09:12:03.455Z,8.50
2022-11-21T09:14:50.640Z,5.00
2022-11-21T09:17:38.394Z,9.00
2022-11-21T09:20:07.943Z,7.00
2022-11-21T09:22:38.278Z,9.00
2022-11-21T09:25:07.822Z,12.00
2022-11-21T09:27:37.169Z,14.75
2022-11-21T09:30:06.668Z,10.75
2022-11-21T09:32:36.199Z,23.00
2022-11-21T09:35:06.143Z,16.00
2022-11-21T09:37:39.341Z,12.50
2022-11-21T09:40:09.287Z,14.50
2022-11-21T09:42:54.317Z,13.00
2022-11-21T09:45:24.218Z,22.25
2022-11-21T09:47:53.960Z,20.25
2022-11-21T09:50:53.582Z,23.00
2022-11-21T09:53:25.811Z,17.00
2022-11-21T09:55:55.354Z,16.75
2022-11-21T09:58:27.725Z,14.00
2022-11-21T10:00:58.528Z,14.50
2022-11-21T10:03:30.964Z,13.75
2022-11-21T10:06:06.796Z,14.25
2022-11-21T10:08:42.085Z,14.75
2022-11-21T10:11:28.812Z,12.75
2022-11-21T10:14:03.772Z,10.00
2022-11-21T10:16:38.044Z,12.50
2022-11-21T10:19:14.746Z,11.00
2022-11-21T10:21:56.731Z,10.25
2022-11-21T10:24:39.027Z,9.50
2022-11-21T10:27:17.657Z,10.25
2022-11-21T10:29:51.876Z,10.00
2022-11-21T10:32:24.900Z,11.50
2022-11-21T10:34:57.281Z,11.00
2022-11-21T10:37:34.014Z,15.50
2022-11-21T10:40:16.770Z,13.25
2022-11-21T10:42:55.573Z,11.00
2022-11-21T10:45:25.913Z,13.50
2022-11-21T10:47:55.187Z,13.00
2022-11-21T10:50:47.655Z,13.00
2022-11-21T10:53:40.766Z,10.00
2022-11-21T10:56:10.432Z,12.00
2022-11-21T10:58:49.865Z,11.50
2022-11-21T11:01:23.776Z,10.25
2022-11-21T11:04:28.613Z,10.25
2022-11-21T11:07:01.168Z,10.00
2022-11-21T11:09:34.982Z,11.25
2022-11-21T11:12:22.383Z,9.75
2022-11-21T11:14:53.284Z,10.25
2022-11-21T11:17:33.456Z,10.25
2022-11-21T11:20:28.630Z,14.00
2022-11-21T11:22:57.940Z,9.50
2022-11-21T11:25:27.196Z,11.00
2022-11-21T11:27:57.480Z,10.50
2022-11-21T11:30:28.993Z,9.50
2022-11-21T11:32:58.604Z,12.00
2022-11-21T11:35:31.192Z,10.75
2022-11-21T11:38:03.812Z,9.00
2022-11-21T11:40:35.993Z,9.50
2022-11-21T11:43:42.270Z,9.25
2022-11-21T11:46:48.907Z,9.00
2022-11-21T11:49:33.688Z,9.25
2022-11-21T11:52:06.164Z,7.50
2022-11-21T11:54:40.427Z,8.25
2022-11-21T11:57:11.610Z,7.25
2022-11-21T11:59:46.969Z,8.00
2022-11-21T12:02:26.375Z,8.50
2022-11-21T12:05:00.019Z,9.00
2022-11-21T12:11:03.071Z,8.00
2022-11-21T12:13:33.283Z,7.25
2022-11-21T12:16:13.112Z,6.25
2022-11-21T12:18:57.787Z,7.75
2022-11-21T12:21:28.172Z,6.25
2022-11-21T12:24:01.592Z,6.50
2022-11-21T12:26:38.614Z,7.25
2022-11-21T12:29:33.055Z,7.00
2022-11-21T12:32:21.097Z,6.25
2022-11-21T12:35:03.559Z,6.00
2022-11-21T12:37:48.468Z,7.00
2022-11-21T12:40:18.661Z,6.00
2022-11-21T12:43:03.581Z,6.25
2022-11-21T12:45:37.796Z,8.75
2022-11-21T12:48:28.769Z,5.00
2022-11-21T12:51:35.789Z,5.25
2022-11-21T12:54:29.751Z,4.25
2022-11-21T12:57:13.037Z,6.00
2022-11-21T12:59:46.191Z,6.00
2022-11-21T13:02:34.349Z,5.75
2022-11-21T13:05:05.619Z,5.50
2022-11-21T13:07:35.952Z,5.00
2022-11-21T13:10:07.921Z,5.75
2022-11-21T13:12:45.084Z,4.50
2022-11-21T13:15:23.867Z,5.00
2022-11-21T13:17:58.765Z,6.50
2022-11-21T13:20:40.217Z,5.50
2022-11-21T13:23:31.263Z,5.00
2022-11-21T13:26:01.440Z,7.50
2022-11-21T13:28:37.315Z,6.25
2022-11-21T13:31:27.058Z,3.75
2022-11-21T13:33:57.890Z,4.25
2022-11-21T13:36:31.486Z,4.00
2022-11-21T13:39:01.556Z,5.25
2022-11-21T13:41:55.267Z,4.00
2022-11-21T13:44:34.441Z,4.75
2022-11-21T13:47:14.250Z,4.75
2022-11-21T13:49:47.038Z,4.25
2022-11-21T13:52:32.264Z,4.25
2022-11-21T13:55:03.049Z,3.50
2022-11-21T13:57:41.614Z,4.25
2022-11-21T14:00:19.842Z,5.25
2022-11-21T14:03:01.204Z,6.00
2022-11-21T14:05:31.024Z,4.00
2022-11-21T14:08:14.833Z,4.75
2022-11-21T14:10:44.853Z,3.00
2022-11-21T14:13:40.560Z,4.50
2022-11-21T14:16:19.163Z,5.00
2022-11-21T14:18:50.671Z,3.25
2022-11-21T14:21:24.435Z,5.75
2022-11-21T14:23:57.403Z,5.75
2022-11-21T14:26:27.178Z,3.00
2022-11-21T14:29:16.902Z,5.25
2022-11-21T14:31:51.201Z,3.25
2022-11-21T14:34:29.105Z,4.50
2022-11-21T14:37:03.158Z,3.75
2022-11-21T14:39:40.829Z,4.50
2022-11-21T14:42:17.086Z,4.25
2022-11-21T14:44:46.738Z,5.75
2022-11-21T14:47:26.996Z,3.75
2022-11-21T14:50:02.416Z,4.00
2022-11-21T14:52:39.287Z,5.00
2022-11-21T14:55:30.296Z,4.00
2022-11-21T14:58:06.208Z,5.00
2022-11-21T15:00:58.710Z,4.25
2022-11-21T15:03:26.491Z,4.00
2022-11-21T15:06:06.945Z,6.00
2022-11-21T15:11:36.348Z,5.00
2022-11-21T15:14:15.934Z,5.00
2022-11-21T15:16:49.522Z,5.75
2022-11-21T15:19:22.019Z,6.25
2022-11-21T15:21:56.307Z,5.75
2022-11-21T15:24:47.194Z,6.25
2022-11-21T15:27:32.042Z,4.75
2022-11-21T15:30:22.609Z,3.50
2022-11-21T15:33:02.403Z,4.75
2022-11-21T15:35:51.244Z,6.00
2022-11-21T15:38:27.417Z,5.00
2022-11-21T15:41:17.055Z,4.50
2022-11-21T15:43:48.180Z,3.25
2022-11-21T15:46:20.296Z,4.75
2022-11-21T15:48:53.109Z,3.50
2022-11-21T15:51:51.352Z,4.50
2022-11-21T15:54:20.725Z,5.25
2022-11-21T15:56:50.705Z,4.00
2022-11-21T15:59:23.251Z,4.75
2022-11-21T16:01:53.906Z,4.75
2022-11-21T16:04:25.853Z,4.00
2022-11-21T16:06:56.723Z,4.75
2022-11-21T16:09:27.161Z,5.50
2022-11-21T16:11:57.221Z,4.75
2022-11-21T16:14:26.906Z,3.50
2022-11-21T16:16:56.566Z,4.25
2022-11-21T16:19:26.456Z,4.00
2022-11-21T16:21:56.389Z,4.50
2022-11-21T16:24:26.136Z,5.50
2022-11-21T16:26:56.727Z,4.00
2022-11-21T16:29:26.666Z,6.50
2022-11-21T16:31:57.355Z,4.50
2022-11-21T16:34:28.811Z,6.25
2022-11-21T16:37:01.629Z,6.00
2022-11-21T16:39:34.821Z,5.25
2022-11-21T16:42:05.024Z,5.75
2022-11-21T16:44:34.711Z,5.75
2022-11-21T16:47:08.557Z,4.75
2022-11-21T16:49:44.505Z,5.25
2022-11-21T16:52:15.322Z,6.00
2022-11-21T16:54:45.136Z,5.75
2022-11-21T16:57:14.816Z,6.50
2022-11-21T16:59:44.395Z,5.75
2022-11-21T17:02:13.899Z,6.75
2022-11-21T17:04:44.246Z,5.00
2022-11-21T17:07:13.918Z,5.75
2022-11-21T17:09:43.344Z,6.75
2022-11-21T17:12:12.663Z,8.25
2022-11-21T17:14:42.089Z,6.00
2022-11-21T17:17:11.442Z,6.00
2022-11-21T17:19:40.749Z,7.25
2022-11-21T17:22:10.063Z,6.75
2022-11-21T17:24:39.336Z,6.75
2022-11-21T17:27:08.598Z,6.75
2022-11-21T17:29:37.864Z,6.50
2022-11-21T17:32:07.315Z,7.00
2022-11-21T17:34:36.916Z,6.00
2022-11-21T17:37:06.323Z,6.75
2022-11-21T17:39:35.722Z,6.00
2022-11-21T17:42:06.322Z,6.75
2022-11-21T17:44:35.579Z,6.25
2022-11-21T17:47:04.863Z,7.75
2022-11-21T17:49:38.195Z,6.25
2022-11-21T17:52:08.037Z,7.25
2022-11-21T17:54:37.521Z,9.25
2022-11-21T17:57:06.903Z,7.75
2022-11-21T17:59:36.202Z,8.00
2022-11-21T18:02:05.571Z,6.50
2022-11-21T18:04:35.822Z,6.00
2022-11-21T18:07:05.097Z,9.50
2022-11-21T18:09:34.919Z,8.50
2022-11-21T18:12:04.239Z,7.25
2022-11-21T18:14:33.542Z,9.25
2022-11-21T18:17:02.898Z,7.25
2022-11-21T18:19:32.208Z,8.25
2022-11-21T18:22:01.536Z,7.75
2022-11-21T18:24:31.155Z,8.50
2022-11-21T18:27:00.662Z,9.00
2022-11-21T18:29:37.420Z,8.75
2022-11-21T18:32:07.405Z,7.00
2022-11-21T18:34:36.802Z,9.00
2022-11-21T18:37:06.172Z,9.75
2022-11-21T18:39:36.006Z,8.00
2022-11-21T18:42:05.241Z,5.75
2022-11-21T18:44:35.469Z,6.75
2022-11-21T18:47:19.316Z,8.50
2022-11-21T18:49:49.614Z,8.50
2022-11-21T18:52:18.912Z,8.25
2022-11-21T18:54:48.337Z,9.50
2022-11-21T18:57:17.607Z,7.75
2022-11-21T18:59:47.147Z,8.25
2022-11-21T19:02:16.433Z,9.00
2022-11-21T19:04:45.883Z,7.25
2022-11-21T19:07:15.125Z,10.75
2022-11-21T19:09:44.430Z,7.50
2022-11-21T19:12:13.744Z,8.00
2022-11-21T19:14:42.997Z,9.25
2022-11-21T19:17:12.300Z,8.50
2022-11-21T19:19:41.591Z,7.75
2022-11-21T19:22:10.924Z,8.25
2022-11-21T19:24:40.143Z,9.00
2022-11-21T19:27:09.497Z,9.50
2022-11-21T19:29:38.893Z,9.75
2022-11-21T19:32:08.157Z,9.00
2022-11-21T19:34:37.477Z,9.50
2022-11-21T19:37:06.755Z,10.00
2022-11-21T19:39:35.992Z,8.50
2022-11-21T19:42:05.824Z,10.00
2022-11-21T19:44:35.218Z,11.00
2022-11-21T19:47:04.572Z,9.75
2022-11-21T19:49:33.960Z,11.50
2022-11-21T19:52:03.253Z,8.00
2022-11-21T19:54:33.469Z,11.25
2022-11-21T19:57:02.786Z,9.00
2022-11-21T19:59:32.499Z,10.25
2022-11-21T20:02:02.888Z,10.25
2022-11-21T20:04:32.247Z,9.00
2022-11-21T20:07:07.430Z,8.00
2022-11-21T20:09:37.908Z,10.00
2022-11-21T20:12:07.839Z,9.00
2022-11-21T20:14:37.123Z,9.75
2022-11-21T20:17:06.373Z,10.25
2022-11-21T20:19:35.599Z,8.75
2022-11-21T20:22:04.852Z,7.75
2022-11-21T20:24:39.958Z,7.75
2022-11-21T20:27:10.902Z,10.00
2022-11-21T20:29:40.225Z,9.75
2022-11-21T20:32:09.465Z,9.25
2022-11-21T20:34:38.755Z,9.25
2022-11-21T20:37:08.110Z,10.00
2022-11-21T20:39:37.371Z,10.00
2022-11-21T20:42:06.700Z,11.00
2022-11-21T20:47:25.418Z,12.25
2022-11-21T20:49:54.653Z,11.00
2022-11-21T20:55:14.648Z,11.00
2022-11-21T20:57:44.277Z,9.75
2022-11-21T21:00:13.930Z,9.25
2022-11-21T21:02:43.275Z,12.75
2022-11-21T21:05:12.636Z,11.75
2022-11-21T21:07:41.937Z,10.00
2022-11-21T21:10:11.629Z,10.00
2022-11-21T21:12:45.763Z,9.00
2022-11-21T21:15:18.303Z,8.50
2022-11-21T21:17:47.636Z,10.50
2022-11-21T21:20:17.277Z,10.75
2022-11-21T21:22:46.660Z,11.75
2022-11-21T21:25:16.005Z,9.00
2022-11-21T21:27:45.316Z,11.00
2022-11-21T21:30:15.023Z,11.50
2022-11-21T21:32:44.306Z,11.50
2022-11-21T21:35:13.985Z,9.50
2022-11-21T21:37:43.252Z,8.75
2022-11-21T21:40:12.735Z,10.50
2022-11-21T21:42:42.004Z,10.50
2022-11-21T21:45:12.070Z,10.50
2022-11-21T21:47:41.357Z,11.00
2022-11-21T21:50:15.663Z,9.25
2022-11-21T21:52:45.736Z,10.75
2022-11-21T21:55:15.096Z,11.50
2022-11-21T21:57:49.654Z,11.00
2022-11-21T22:00:21.562Z,10.75
2022-11-21T22:02:50.935Z,10.50
2022-11-21T22:05:20.151Z,9.50
2022-11-21T22:07:49.436Z,10.50
2022-11-21T22:10:18.869Z,11.25
2022-11-21T22:12:49.391Z,9.50
2022-11-21T22:15:18.864Z,10.50
2022-11-21T22:17:48.145Z,7.25
2022-11-21T22:20:17.636Z,8.50
2022-11-21T22:22:46.946Z,8.25
2022-11-21T22:25:16.238Z,6.75
2022-11-21T22:27:45.504Z,9.75
2022-11-21T22:30:15.745Z,8.25
2022-11-21T22:32:44.981Z,9.25
2022-11-21T22:35:14.238Z,10.50
2022-11-21T22:37:43.508Z,9.00
2022-11-21T22:40:13.245Z,6.50
2022-11-21T22:42:42.578Z,8.00
2022-11-21T22:45:11.854Z,7.75
2022-11-21T22:47:46.450Z,8.00
2022-11-21T22:50:18.155Z,8.00
2022-11-21T22:52:47.482Z,10.25
2022-11-21T22:55:16.770Z,8.25
2022-11-21T22:57:46.295Z,9.00
2022-11-21T23:00:15.877Z,8.00
2022-11-21T23:02:45.858Z,8.00
2022-11-21T23:05:15.741Z,7.00
2022-11-21T23:07:46.240Z,6.00
2022-11-21T23:10:15.554Z,7.75
2022-11-21T23:12:44.884Z,6.50
2022-11-21T23:15:14.259Z,10.25
2022-11-21T23:17:46.114Z,7.00
2022-11-21T23:20:19.100Z,8.00
2022-11-21T23:22:48.363Z,12.00
2022-11-21T23:25:17.689Z,8.00
2022-11-21T23:27:46.986Z,7.75
2022-11-21T23:30:16.528Z,6.00
2022-11-21T23:32:45.844Z,6.00
2022-11-21T23:35:15.173Z,6.50
2022-11-21T23:37:44.468Z,8.00
2022-11-21T23:40:13.922Z,7.50
2022-11-21T23:42:43.276Z,5.75
2022-11-21T23:45:12.633Z,6.75
2022-11-21T23:47:42.333Z,6.25
2022-11-21T23:50:11.782Z,6.75
2022-11-21T23:52:41.155Z,6.00
2022-11-21T23:55:10.888Z,6.25
2022-11-21T23:57:40.140Z,5.00
